Time;durP1;ratioP1;P1;durP2;ratioP2;P2;SDS_P1;SDS_P2;PMS_P1;PMS_P2;Temp;Humidity;BMP_temperature;BMP_pressure;BME280_temperature;BME280_humidity;BME280_pressure;Samples;Min_cycle;Max_cycle;Signal;HPM_P1;HPM_P2
2021/07/08 00:02:11;;;;;;;7.33;4.22;;;;;;;22.78;57.91;100105.66;1783988;79;21044;-44
2021/07/08 00:04:39;;;;;;;9.68;4.08;;;;;;;22.79;57.62;100110.77;1779830;79;21587;-44
2021/07/08 00:07:09;;;;;;;11.10;4.72;;;;;;;22.82;57.47;100108.53;1783226;79;20918;-44
2021/07/08 00:09:36;;;;;;;10.03;4.10;;;;;;;22.86;57.41;100105.69;1784215;80;20988;-44
2021/07/08 00:12:05;;;;;;;7.12;4.10;;;;;;;22.88;57.26;100105.45;1784243;80;20993;-44
2021/07/08 00:14:34;;;;;;;5.80;3.30;;;;;;;22.91;57.19;100101.05;1783882;80;21033;-44
2021/07/08 00:17:00;;;;;;;6.35;3.77;;;;;;;22.92;57.05;100102.61;1783823;80;21029;-44
2021/07/08 00:19:27;;;;;;;9.08;4.20;;;;;;;22.94;57.03;100105.75;1784297;79;21837;-44
2021/07/08 00:21:53;;;;;;;5.97;4.12;;;;;;;22.96;56.99;100099.95;1781834;80;21004;-44
2021/07/08 00:24:20;;;;;;;6.15;4.50;;;;;;;22.99;56.93;100104.47;1784002;80;21046;-44
2021/07/08 00:26:47;;;;;;;7.65;4.22;;;;;;;23.00;56.97;100106.01;1783986;80;21523;-44
2021/07/08 00:29:15;;;;;;;7.00;4.47;;;;;;;23.02;56.91;100103.61;1784110;79;21020;-44
2021/07/08 00:31:42;;;;;;;7.17;4.65;;;;;;;23.03;56.87;100103.80;1768829;80;21128;-44
2021/07/08 00:34:08;;;;;;;8.65;4.60;;;;;;;23.03;56.92;100101.03;1783235;80;21455;-44
2021/07/08 00:36:35;;;;;;;10.58;4.62;;;;;;;23.02;56.81;100103.01;1783959;80;20964;-44
2021/07/08 00:39:02;;;;;;;7.47;4.25;;;;;;;23.03;56.82;100099.64;1783885;79;21044;-44
2021/07/08 00:41:28;;;;;;;6.12;4.40;;;;;;;23.04;56.82;100099.23;1783191;80;20994;-44
2021/07/08 00:43:56;;;;;;;7.75;4.95;;;;;;;23.06;57.00;100100.16;1784106;80;21130;-44
2021/07/08 00:46:22;;;;;;;8.10;4.45;;;;;;;23.05;56.97;100098.00;1771301;80;21498;-44
2021/07/08 00:48:49;;;;;;;7.97;4.90;;;;;;;23.06;56.99;100096.02;1778034;80;21000;-44
2021/07/08 00:51:16;;;;;;;5.12;4.50;;;;;;;23.06;56.99;100094.63;1775033;80;20996;-43
2021/07/08 00:53:43;;;;;;;6.22;4.58;;;;;;;23.08;57.02;100101.91;1789992;79;21063;-44
2021/07/08 00:56:10;;;;;;;7.72;4.90;;;;;;;23.06;57.07;100089.88;1782260;80;21785;-44
2021/07/08 00:58:38;;;;;;;9.80;5.12;;;;;;;23.06;57.00;100097.40;1758754;81;21028;-44
2021/07/08 01:01:05;;;;;;;5.53;4.75;;;;;;;23.06;57.08;100095.41;1758160;81;21518;-44
2021/07/08 01:03:31;;;;;;;6.72;4.78;;;;;;;23.06;57.07;100094.03;1782336;80;20965;-44
2021/07/08 01:05:58;;;;;;;7.58;5.03;;;;;;;23.06;57.12;100098.18;1759746;78;20937;-44
2021/07/08 01:08:25;;;;;;;7.37;4.78;;;;;;;23.06;57.09;100094.63;1766887;78;21112;-44
2021/07/08 01:10:52;;;;;;;8.18;5.12;;;;;;;23.05;57.09;100099.98;1766447;79;20890;-44
2021/07/08 01:13:20;;;;;;;5.95;4.55;;;;;;;23.04;57.15;100098.45;1786623;80;21601;-44
2021/07/08 01:15:47;;;;;;;6.85;4.78;;;;;;;23.04;57.16;100095.68;1789256;79;21538;-44
2021/07/08 01:18:14;;;;;;;7.78;5.00;;;;;;;23.04;57.21;100098.45;1789756;80;21012;-44
2021/07/08 01:20:40;;;;;;;5.90;4.70;;;;;;;23.03;57.22;100099.05;1788613;80;21118;-44
2021/07/08 01:23:07;;;;;;;10.18;4.55;;;;;;;23.03;57.23;100099.64;1789308;80;21530;-44
2021/07/08 01:25:36;;;;;;;7.08;4.90;;;;;;;23.03;57.26;100096.88;1789243;80;20945;-44
2021/07/08 01:28:05;;;;;;;9.68;5.22;;;;;;;23.03;57.32;100098.27;1789330;80;21068;-44
2021/07/08 01:30:32;;;;;;;7.62;5.60;;;;;;;23.03;57.26;100103.80;1788735;80;21039;-44
2021/07/08 01:32:59;;;;;;;8.13;5.40;;;;;;;23.02;57.31;100106.38;1789085;80;21570;-44
2021/07/08 01:35:27;;;;;;;11.10;5.97;;;;;;;23.02;57.37;100104.99;1789281;79;21048;-44
2021/07/08 01:37:54;;;;;;;10.38;5.53;;;;;;;23.01;57.31;100109.73;1788747;79;21011;-44
2021/07/08 01:40:20;;;;;;;7.40;6.22;;;;;;;23.01;57.39;100104.81;1778918;79;20994;-44
2021/07/08 01:42:47;;;;;;;10.65;6.50;;;;;;;23.00;57.48;100104.63;1789333;80;21009;-43
2021/07/08 01:45:15;;;;;;;8.13;6.08;;;;;;;23.00;57.54;100106.01;1788964;80;21108;-44
2021/07/08 01:47:43;;;;;;;8.68;5.97;;;;;;;22.98;57.60;100109.82;1783479;79;21502;-44
2021/07/08 01:50:14;;;;;;;7.62;5.83;;;;;;;22.94;57.61;100104.36;1783994;80;20960;-44
2021/07/08 01:52:41;;;;;;;8.40;6.08;;;;;;;22.93;57.74;100109.11;1783157;80;21467;-44
2021/07/08 01:55:10;;;;;;;9.85;6.00;;;;;;;22.91;57.73;100107.36;1783050;80;21060;-44
2021/07/08 01:57:43;;;;;;;8.68;5.55;;;;;;;22.90;57.83;100105.80;1783265;80;21755;-44
2021/07/08 02:00:13;;;;;;;7.58;5.67;;;;;;;22.89;57.89;100111.17;1765334;80;21028;-44
2021/07/08 02:02:42;;;;;;;7.00;5.55;;;;;;;22.88;57.96;100112.38;1758079;81;20934;-44
2021/07/08 02:05:10;;;;;;;9.15;5.70;;;;;;;22.86;58.03;100114.77;1777336;80;21067;-45
2021/07/08 02:07:37;;;;;;;10.72;5.55;;;;;;;22.84;58.09;100108.90;1789280;80;21558;-45
2021/07/08 02:10:07;;;;;;;10.40;5.20;;;;;;;22.84;58.14;100113.05;1769470;80;21062;-44
2021/07/08 02:12:34;;;;;;;13.60;5.17;;;;;;;22.85;58.20;100109.68;1758271;81;21553;-44
2021/07/08 02:15:00;;;;;;;6.20;4.87;;;;;;;22.86;58.26;100112.60;1757889;81;20980;-44
2021/07/08 02:17:27;;;;;;;7.12;4.83;;;;;;;22.87;58.27;100112.19;1757987;81;20990;-44
2021/07/08 02:19:53;;;;;;;6.83;5.17;;;;;;;22.89;58.21;100118.08;1774953;80;21072;-44
2021/07/08 02:22:20;;;;;;;5.58;5.00;;;;;;;22.91;58.27;100121.19;1772649;80;21844;-45
2021/07/08 02:24:47;;;;;;;9.15;4.83;;;;;;;22.93;58.21;100121.55;1757891;81;20941;-44
2021/07/08 02:27:13;;;;;;;8.63;5.35;;;;;;;22.95;58.13;100118.34;1772500;80;21562;-44
2021/07/08 02:29:40;;;;;;;6.92;5.17;;;;;;;22.95;58.16;100121.11;1789117;79;20922;-44
2021/07/08 02:32:08;;;;;;;10.13;5.50;;;;;;;22.94;58.25;100123.72;1789190;80;21072;-44
2021/07/08 02:34:37;;;;;;;7.92;5.17;;;;;;;22.93;58.28;100127.69;1789316;80;21113;-44
2021/07/08 02:37:06;;;;;;;9.68;5.22;;;;;;;22.92;58.37;100131.05;1789062;80;21514;-44
2021/07/08 02:39:34;;;;;;;5.72;4.95;;;;;;;22.90;58.38;100127.92;1777273;79;21537;-44
2021/07/08 02:42:04;;;;;;;10.03;4.70;;;;;;;22.90;58.48;100126.53;1757828;81;21032;-45
2021/07/08 02:44:32;;;;;;;6.87;5.10;;;;;;;22.89;58.49;100126.38;1758150;81;21040;-45
2021/07/08 02:47:01;;;;;;;7.10;4.75;;;;;;;22.89;58.59;100121.45;1774775;80;21171;-45
2021/07/08 02:49:28;;;;;;;10.08;5.37;;;;;;;22.89;58.50;100129.74;1770356;79;20973;-44
2021/07/08 02:51:54;;;;;;;7.33;5.28;;;;;;;22.86;58.66;100125.83;1768639;81;21670;-44
2021/07/08 02:54:21;;;;;;;9.25;4.87;;;;;;;22.86;58.74;100125.83;1772201;81;21500;-44
2021/07/08 02:56:47;;;;;;;12.93;4.78;;;;;;;22.89;58.75;100130.52;1772598;79;21002;-44
2021/07/08 02:59:14;;;;;;;7.20;5.03;;;;;;;22.93;58.66;100128.47;1766811;79;21133;-44
2021/07/08 03:01:40;;;;;;;5.58;4.60;;;;;;;22.99;58.60;100125.99;1742248;81;21034;-44
2021/07/08 03:04:07;;;;;;;8.13;4.83;;;;;;;23.04;58.55;100132.41;1742735;81;21076;-44
2021/07/08 03:06:34;;;;;;;10.40;4.95;;;;;;;23.09;58.35;100132.52;1743147;81;20969;-44
2021/07/08 03:09:02;;;;;;;7.47;4.70;;;;;;;23.11;58.35;100128.71;1764779;81;21021;-45
2021/07/08 03:11:29;;;;;;;8.30;4.83;;;;;;;23.14;58.27;100126.49;1749251;81;21090;-44
2021/07/08 03:13:55;;;;;;;8.23;4.75;;;;;;;23.17;58.10;100130.56;1772396;81;21078;-44
2021/07/08 03:16:22;;;;;;;10.10;5.05;;;;;;;23.19;58.20;100136.44;1766613;81;21849;-45
2021/07/08 03:18:50;;;;;;;11.35;4.92;;;;;;;23.23;58.06;100133.62;1741643;81;20894;-45
2021/07/08 03:21:17;;;;;;;7.10;4.67;;;;;;;23.21;58.08;100135.42;1734028;82;21006;-44
2021/07/08 03:23:45;;;;;;;8.00;4.47;;;;;;;23.22;58.07;100139.75;1733480;82;21128;-45
2021/07/08 03:26:11;;;;;;;8.88;5.00;;;;;;;23.23;58.23;100140.53;1733609;82;20970;-45
2021/07/08 03:28:38;;;;;;;10.68;5.28;;;;;;;23.24;58.24;100137.92;1759752;81;20918;-44
2021/07/08 03:31:04;;;;;;;6.20;4.70;;;;;;;23.26;58.22;100140.45;1772495;79;21037;-45
2021/07/08 03:33:31;;;;;;;8.75;4.75;;;;;;;23.29;58.27;100141.57;1772701;79;21085;-44
2021/07/08 03:35:58;;;;;;;8.75;4.92;;;;;;;23.33;58.44;100143.69;1768368;81;21110;-44
2021/07/08 03:38:24;;;;;;;8.78;5.05;;;;;;;23.37;58.23;100154.08;1748317;81;21086;-45
2021/07/08 03:40:51;;;;;;;8.38;4.83;;;;;;;23.39;58.53;100155.80;1741805;82;20938;-45
2021/07/08 03:43:18;;;;;;;8.58;4.67;;;;;;;23.44;58.32;100161.43;1742016;82;21016;-45
2021/07/08 03:45:44;;;;;;;6.67;4.58;;;;;;;23.51;58.37;100164.88;1746293;81;21562;-45
2021/07/08 03:48:10;;;;;;;9.73;4.95;;;;;;;23.58;58.24;100162.55;1763229;81;21137;-45
2021/07/08 03:50:37;;;;;;;7.22;5.35;;;;;;;23.65;58.28;100163.19;1774191;80;21020;-45
2021/07/08 03:53:03;;;;;;;24.43;8.13;;;;;;;23.72;58.27;100165.03;1781450;80;20913;-45
2021/07/08 03:55:31;;;;;;;18.52;6.85;;;;;;;23.78;58.38;100165.46;1789112;79;21487;-44
2021/07/08 03:57:58;;;;;;;7.80;4.97;;;;;;;23.83;58.26;100166.34;1789217;80;21037;-45
2021/07/08 04:00:36;;;;;;;8.15;4.97;;;;;;;23.87;58.27;100170.41;1789075;80;21138;-45
2021/07/08 04:03:06;;;;;;;7.70;5.00;;;;;;;23.90;58.28;100170.16;1775322;80;21024;-44
2021/07/08 04:05:34;;;;;;;9.35;5.15;;;;;;;23.91;58.36;100171.12;1783053;79;21028;-45
2021/07/08 04:08:01;;;;;;;8.20;5.20;;;;;;;23.94;58.33;100169.47;1759000;80;21005;-45
2021/07/08 04:10:28;;;;;;;7.05;5.12;;;;;;;23.98;58.21;100174.33;1788991;80;21025;-44
2021/07/08 04:12:55;;;;;;;8.50;5.08;;;;;;;23.99;58.45;100168.97;1781865;80;21127;-45
2021/07/08 04:15:21;;;;;;;8.65;4.85;;;;;;;24.03;58.38;100173.21;1758086;80;21068;-45
2021/07/08 04:17:48;;;;;;;7.75;4.90;;;;;;;24.07;58.49;100173.12;1757774;81;21016;-45
2021/07/08 04:20:18;;;;;;;10.65;5.20;;;;;;;24.09;58.27;100182.58;1767200;79;21554;-44
2021/07/08 04:22:46;;;;;;;10.98;4.75;;;;;;;24.03;58.31;100171.05;1769507;80;20965;-44
2021/07/08 04:25:14;;;;;;;12.70;5.00;;;;;;;24.18;58.31;100182.78;1787575;80;21223;-45
2021/07/08 04:27:41;;;;;;;9.85;5.40;;;;;;;24.27;58.23;100184.95;1788899;80;20897;-45
2021/07/08 04:30:09;;;;;;;7.75;4.83;;;;;;;24.34;58.36;100184.79;1789171;80;21850;-45
2021/07/08 04:32:37;;;;;;;9.90;6.08;;;;;;;24.42;58.36;100186.77;1761363;79;21475;-45
2021/07/08 04:35:05;;;;;;;12.90;6.05;;;;;;;24.48;58.34;100187.21;1762462;80;21029;-44
2021/07/08 04:37:39;;;;;;;21.90;7.50;;;;;;;24.54;58.34;100197.96;1789506;80;21778;-45
2021/07/08 04:40:03;;;;;;;21.37;7.40;;;;;;;24.58;58.60;100195.09;1788648;79;20977;-44
2021/07/08 04:42:29;;;;;;;9.88;5.75;;;;;;;24.62;58.49;100202.11;1789405;80;21559;-45
2021/07/08 04:44:55;;;;;;;9.85;6.15;;;;;;;24.65;58.71;100199.05;1774344;80;21020;-44
2021/07/08 04:47:24;;;;;;;9.90;5.45;;;;;;;24.69;58.62;100208.06;1779392;80;21031;-45
2021/07/08 04:49:50;;;;;;;8.40;6.15;;;;;;;24.73;58.36;100207.99;1784826;80;21124;-45
2021/07/08 04:52:17;;;;;;;9.90;5.47;;;;;;;24.79;58.44;100206.23;1789413;80;21512;-44
2021/07/08 04:54:43;;;;;;;10.63;5.67;;;;;;;24.84;58.56;100211.25;1777305;80;21076;-45
2021/07/08 04:57:10;;;;;;;11.45;5.60;;;;;;;24.90;58.48;100212.31;1758276;80;21361;-45
2021/07/08 04:59:37;;;;;;;10.85;5.45;;;;;;;24.98;58.30;100215.09;1783723;80;20989;-44
2021/07/08 05:02:04;;;;;;;12.68;5.50;;;;;;;25.09;57.95;100215.57;1787179;80;21511;-45
2021/07/08 05:04:31;;;;;;;10.05;5.50;;;;;;;25.24;57.17;100220.91;1789088;80;20960;-44
2021/07/08 05:06:58;;;;;;;11.95;5.78;;;;;;;25.33;57.22;100217.50;1789090;80;20941;-44
2021/07/08 05:09:25;;;;;;;9.65;5.37;;;;;;;25.38;57.18;100220.52;1787605;79;21004;-44
2021/07/08 05:11:52;;;;;;;8.60;5.20;;;;;;;25.45;57.21;100220.33;1789449;79;21056;-45
2021/07/08 05:14:19;;;;;;;16.60;5.80;;;;;;;25.53;56.92;100218.12;1789146;80;21302;-45
2021/07/08 05:16:45;;;;;;;9.48;5.12;;;;;;;25.59;57.01;100224.73;1789320;80;21020;-45
2021/07/08 05:19:12;;;;;;;10.65;5.42;;;;;;;25.65;56.99;100222.19;1788488;80;21515;-45
2021/07/08 05:21:48;;;;;;;10.10;5.12;;;;;;;25.70;56.64;100225.20;1789397;80;21028;-45
2021/07/08 05:24:21;;;;;;;8.55;5.00;;;;;;;25.75;57.06;100226.66;1789651;80;20981;-44
2021/07/08 05:26:49;;;;;;;7.20;4.90;;;;;;;25.80;56.78;100228.25;1789256;79;21121;-45
2021/07/08 05:29:15;;;;;;;8.43;5.08;;;;;;;25.87;56.57;100235.61;1787151;80;21003;-45
2021/07/08 05:31:42;;;;;;;7.35;5.22;;;;;;;25.90;56.27;100233.34;1789307;80;21001;-44
2021/07/08 05:34:08;;;;;;;7.75;5.22;;;;;;;25.95;56.28;100230.78;1789212;80;21499;-45
2021/07/08 05:36:35;;;;;;;8.98;5.20;;;;;;;26.00;56.45;100236.39;1789404;80;21076;-45
2021/07/08 05:39:03;;;;;;;9.68;5.17;;;;;;;26.00;56.68;100232.22;1770698;80;21081;-45
2021/07/08 05:41:30;;;;;;;9.30;4.90;;;;;;;26.10;56.87;100233.91;1783626;80;21037;-45
2021/07/08 05:43:57;;;;;;;9.65;4.50;;;;;;;26.18;56.73;100238.04;1789217;79;20906;-45
2021/07/08 05:46:23;;;;;;;7.50;5.03;;;;;;;26.25;55.38;100237.83;1786886;80;21048;-45
2021/07/08 05:48:50;;;;;;;6.83;4.80;;;;;;;26.32;55.34;100233.45;1772597;80;21080;-45
2021/07/08 05:51:16;;;;;;;10.78;4.60;;;;;;;26.39;54.52;100235.20;1787968;80;21137;-45
2021/07/08 05:53:43;;;;;;;7.95;4.25;;;;;;;26.44;54.22;100239.43;1783279;80;22059;-45
2021/07/08 05:56:09;;;;;;;7.08;4.20;;;;;;;26.53;54.48;100240.95;1783081;80;20924;-45
2021/07/08 05:58:36;;;;;;;9.18;4.45;;;;;;;26.59;54.65;100242.70;1764293;80;20992;-45
2021/07/08 06:01:03;;;;;;;10.98;5.37;;;;;;;26.67;53.80;100242.66;1779239;80;21091;-45
2021/07/08 06:03:29;;;;;;;8.15;4.70;;;;;;;26.74;53.90;100238.23;1782261;80;21803;-45
2021/07/08 06:05:56;;;;;;;8.95;4.65;;;;;;;26.81;53.48;100245.57;1782868;80;21064;-45
2021/07/08 06:08:22;;;;;;;7.35;4.20;;;;;;;26.89;53.61;100245.52;1783493;79;21018;-44
2021/07/08 06:10:49;;;;;;;9.58;4.70;;;;;;;26.97;53.23;100246.82;1757345;79;21036;-45
2021/07/08 06:13:15;;;;;;;8.65;4.28;;;;;;;27.05;52.58;100250.94;1752461;81;21040;-45
2021/07/08 06:15:42;;;;;;;9.45;4.70;;;;;;;27.12;52.37;100247.89;1752097;81;21123;-45
2021/07/08 06:18:09;;;;;;;9.10;4.78;;;;;;;27.19;52.74;100243.48;1756690;80;20972;-44
2021/07/08 06:20:36;;;;;;;6.95;4.25;;;;;;;27.25;52.87;100253.42;1758801;80;21099;-46
2021/07/08 06:23:03;;;;;;;7.62;4.35;;;;;;;27.33;52.34;100251.16;1752370;80;21024;-44
2021/07/08 06:25:31;;;;;;;5.65;4.20;;;;;;;27.39;52.20;100252.92;1752105;81;21620;-45
2021/07/08 06:27:59;;;;;;;6.42;4.37;;;;;;;27.45;52.08;100256.66;1752346;81;21114;-45
2021/07/08 06:30:27;;;;;;;6.67;4.30;;;;;;;27.53;52.11;100253.05;1754232;80;21032;-45
2021/07/08 06:32:53;;;;;;;7.62;4.25;;;;;;;27.58;51.62;100254.64;1752329;81;21907;-45
2021/07/08 06:35:20;;;;;;;8.73;4.55;;;;;;;27.65;51.35;100254.97;1777582;80;21036;-45
2021/07/08 06:37:47;;;;;;;8.65;3.98;;;;;;;27.73;51.16;100261.86;1783360;80;21044;-45
2021/07/08 06:40:17;;;;;;;6.97;4.03;;;;;;;27.79;50.65;100257.87;1783133;80;21537;-45
2021/07/08 06:42:44;;;;;;;8.38;4.50;;;;;;;27.87;50.30;100265.50;1783555;80;21529;-45
2021/07/08 06:45:13;;;;;;;12.40;4.22;;;;;;;27.95;50.55;100266.00;1755927;80;21106;-45
2021/07/08 06:47:44;;;;;;;13.23;4.23;;;;;;;28.03;50.59;100266.66;1781641;80;21318;-45
2021/07/08 06:50:11;;;;;;;11.05;4.90;;;;;;;28.13;49.76;100264.72;1752299;80;21087;-45
2021/07/08 06:52:38;;;;;;;11.55;4.50;;;;;;;28.21;49.44;100268.03;1752814;80;21155;-45
2021/07/08 06:55:06;;;;;;;5.10;3.77;;;;;;;28.29;49.28;100263.10;1751970;81;20974;-45
2021/07/08 06:57:33;;;;;;;13.03;4.67;;;;;;;28.38;49.68;100266.53;1752164;81;21549;-45
2021/07/08 06:59:59;;;;;;;7.67;4.40;;;;;;;28.47;48.93;100263.16;1752045;81;21056;-45
2021/07/08 07:02:26;;;;;;;9.55;3.90;;;;;;;28.55;48.88;100269.25;1754840;80;21508;-45
2021/07/08 07:04:53;;;;;;;7.65;4.42;;;;;;;28.62;49.39;100273.12;1752635;80;21112;-45
2021/07/08 07:07:19;;;;;;;11.08;4.08;;;;;;;28.67;48.39;100269.73;1752434;80;21522;-45
2021/07/08 07:09:46;;;;;;;10.20;4.25;;;;;;;28.73;48.89;100273.51;1783110;80;20936;-45
2021/07/08 07:12:13;;;;;;;9.08;4.35;;;;;;;28.81;49.04;100273.36;1783252;80;21028;-45
2021/07/08 07:14:39;;;;;;;9.38;3.98;;;;;;;28.91;49.12;100273.54;1767193;80;21123;-44
2021/07/08 07:17:06;;;;;;;6.80;3.87;;;;;;;29.01;48.41;100274.94;1763908;80;21731;-45
2021/07/08 07:19:33;;;;;;;4.58;3.58;;;;;;;29.10;47.92;100270.14;1752656;80;20969;-45
2021/07/08 07:22:01;;;;;;;7.15;3.92;;;;;;;29.17;47.94;100278.84;1752740;80;21035;-45
2021/07/08 07:24:28;;;;;;;3.60;3.20;;;;;;;29.26;47.42;100277.45;1752364;80;21632;-45
2021/07/08 07:26:55;;;;;;;5.22;3.60;;;;;;;29.35;47.03;100276.09;1752078;81;21055;-45
2021/07/08 07:29:22;;;;;;;4.85;3.50;;;;;;;29.44;46.64;100280.27;1759507;80;21115;-45
2021/07/08 07:31:48;;;;;;;9.40;3.42;;;;;;;29.53;45.69;100278.87;1783052;80;21068;-45
2021/07/08 07:34:15;;;;;;;3.90;3.30;;;;;;;29.63;45.45;100280.41;1782422;80;21672;-45
2021/07/08 07:36:42;;;;;;;6.65;4.00;;;;;;;29.73;45.00;100285.36;1783150;80;21012;-45
2021/07/08 07:39:09;;;;;;;5.95;3.58;;;;;;;29.85;45.23;100296.23;1772465;80;21605;-45
2021/07/08 07:41:35;;;;;;;5.85;3.50;;;;;;;29.88;44.97;100293.27;1752046;81;21099;-45
2021/07/08 07:44:04;;;;;;;6.05;3.62;;;;;;;29.90;45.03;100292.22;1752000;81;21020;-45
2021/07/08 07:46:30;;;;;;;7.22;3.65;;;;;;;29.96;45.33;100288.17;1767328;80;21498;-45
2021/07/08 07:48:57;;;;;;;6.58;3.30;;;;;;;30.04;44.97;100284.56;1772796;80;21043;-45
2021/07/08 07:51:23;;;;;;;10.65;3.37;;;;;;;30.16;45.04;100291.97;1743651;81;21522;-45
2021/07/08 07:53:50;;;;;;;4.30;3.33;;;;;;;30.25;44.04;100288.39;1736126;82;21130;-45
2021/07/08 07:56:18;;;;;;;9.20;4.03;;;;;;;30.32;43.19;100290.84;1735947;82;21613;-45
2021/07/08 07:58:45;;;;;;;7.15;3.58;;;;;;;30.43;43.60;100288.94;1749724;81;21024;-45
2021/07/08 08:01:11;;;;;;;4.75;3.20;;;;;;;30.54;43.37;100287.21;1746994;81;21612;-45
2021/07/08 08:03:39;;;;;;;5.12;3.45;;;;;;;30.68;42.59;100290.55;1766175;81;21119;-45
2021/07/08 08:08:53;;;;;;;6.08;3.20;;;;;;;30.93;42.24;100290.88;1763989;81;20949;-45
2021/07/08 08:11:21;;;;;;;5.80;3.20;;;;;;;31.04;41.45;100289.72;1743770;81;20988;-45
2021/07/08 08:13:48;;;;;;;5.55;3.37;;;;;;;31.16;41.46;100295.56;1766516;81;21065;-45
2021/07/08 08:16:14;;;;;;;4.78;2.98;;;;;;;31.28;41.13;100289.70;1754169;81;21083;-45
2021/07/08 08:18:42;;;;;;;7.65;3.20;;;;;;;31.38;40.82;100293.20;1756832;81;21522;-45
2021/07/08 08:21:09;;;;;;;5.30;3.10;;;;;;;31.25;40.17;100259.07;1735965;82;20933;-45
2021/07/08 08:23:36;;;;;;;6.95;3.30;;;;;;;31.52;40.22;100293.11;1736238;82;21033;-45
2021/07/08 08:26:03;;;;;;;5.75;3.27;;;;;;;31.58;40.46;100285.59;1736065;82;20981;-45
2021/07/08 08:28:30;;;;;;;7.47;2.80;;;;;;;31.65;40.66;100295.03;1736303;81;21534;-45
2021/07/08 08:30:57;;;;;;;5.72;3.37;;;;;;;31.76;39.63;100293.81;1762988;81;21170;-45
2021/07/08 08:33:23;;;;;;;15.05;3.70;;;;;;;31.87;39.47;100287.02;1766618;81;21487;-45
2021/07/08 08:35:50;;;;;;;5.42;3.20;;;;;;;32.00;39.76;100295.91;1766097;81;20949;-45
2021/07/08 08:38:16;;;;;;;4.85;2.62;;;;;;;32.11;39.11;100296.75;1766544;81;21049;-45
2021/07/08 08:40:43;;;;;;;13.00;3.20;;;;;;;32.20;39.57;100300.23;1751058;81;21009;-45
2021/07/08 08:43:11;;;;;;;18.30;3.50;;;;;;;32.34;39.46;100293.05;1736210;82;21383;-45
2021/07/08 08:45:39;;;;;;;23.47;3.40;;;;;;;32.47;38.72;100292.75;1740190;81;20989;-45
2021/07/08 08:48:09;;;;;;;11.53;3.20;;;;;;;32.57;38.24;100296.98;1766544;81;20977;-45
2021/07/08 08:50:42;;;;;;;7.80;3.12;;;;;;;32.56;37.43;100299.64;1744841;81;21048;-45
2021/07/08 08:53:10;;;;;;;5.85;2.85;;;;;;;32.57;37.37;100303.38;1754736;81;21050;-45
2021/07/08 08:55:38;;;;;;;7.95;3.42;;;;;;;32.61;37.63;100305.97;1721262;83;21145;-45
2021/07/08 08:58:06;;;;;;;10.60;3.05;;;;;;;32.65;37.53;100296.74;1721269;82;21020;-45
2021/07/08 09:00:48;;;;;;;4.83;3.00;;;;;;;32.75;37.02;100296.76;1715172;82;20933;-45
2021/07/08 09:03:18;;;;;;;5.85;3.20;;;;;;;32.86;37.34;100294.11;1737418;82;21087;-45
2021/07/08 09:05:50;;;;;;;4.78;2.98;;;;;;;32.99;36.71;100294.53;1712847;82;21091;-46
2021/07/08 09:08:21;;;;;;;5.40;3.00;;;;;;;33.14;35.09;100293.84;1663878;84;21232;-45
2021/07/08 09:11:13;;;;;;;13.98;4.42;;;;;;;33.26;35.07;100287.73;1708030;84;21019;-45
2021/07/08 09:13:46;;;;;;;17.77;4.28;;;;;;;33.40;35.59;100295.33;1720923;82;21594;-45
2021/07/08 09:16:20;;;;;;;51.85;7.58;;;;;;;33.40;36.13;100291.11;1726655;82;21546;-45
2021/07/08 09:19:17;;;;;;;7.87;3.52;;;;;;;33.36;36.03;100298.19;1727218;82;21041;-45
2021/07/08 09:21:50;;;;;;;7.92;3.27;;;;;;;33.29;36.01;100297.23;1746804;81;21117;-45
2021/07/08 09:24:25;;;;;;;28.20;5.40;;;;;;;33.19;35.91;100291.76;1721249;82;21389;-44
2021/07/08 09:27:00;;;;;;;19.15;5.33;;;;;;;33.16;36.00;100297.60;1721229;82;20965;-44
2021/07/08 09:29:35;;;;;;;5.33;2.90;;;;;;;33.16;35.57;100301.81;1721216;82;21092;-44
2021/07/08 09:32:13;;;;;;;15.48;4.22;;;;;;;33.18;35.52;100296.45;1721416;82;21013;-44
2021/07/08 09:34:43;;;;;;;26.60;5.17;;;;;;;33.28;34.97;100299.89;1721834;82;21143;-44
2021/07/08 09:37:17;;;;;;;30.23;5.60;;;;;;;33.26;34.54;100299.63;1712395;83;21064;-44
2021/07/08 09:39:50;;;;;;;21.40;4.45;;;;;;;33.27;34.82;100299.12;1720947;82;21000;-45
2021/07/08 09:42:35;;;;;;;11.43;3.58;;;;;;;33.26;34.69;100298.97;1724365;82;21111;-44
2021/07/08 09:45:11;;;;;;;7.15;3.55;;;;;;;33.28;34.36;100296.45;1751451;82;21080;-44
2021/07/08 09:47:40;;;;;;;3.90;2.70;;;;;;;33.34;34.57;100300.74;1722693;82;21154;-44
2021/07/08 09:50:10;;;;;;;3.60;2.67;;;;;;;33.38;34.61;100297.08;1731052;82;20954;-45
2021/07/08 09:52:38;;;;;;;3.27;2.90;;;;;;;33.45;33.72;100291.03;1700179;82;21017;-45
2021/07/08 09:57:45;;;;;;;8.63;3.72;;;;;;;33.31;33.41;100289.09;1709107;83;20989;-44
2021/07/08 10:00:28;;;;;;;4.10;2.80;;;;;;;33.25;34.77;100286.84;1728188;82;21089;-44
2021/07/08 10:02:55;;;;;;;6.15;3.00;;;;;;;33.26;34.48;100282.11;1696050;84;21069;-45
2021/07/08 10:05:25;;;;;;;5.75;3.17;;;;;;;33.27;33.80;100289.28;1710568;82;21088;-45
2021/07/08 10:07:53;;;;;;;7.12;3.17;;;;;;;33.28;33.57;100276.00;1720914;82;20980;-44
2021/07/08 10:10:21;;;;;;;4.42;2.95;;;;;;;33.36;34.71;100277.11;1700990;83;21517;-44
2021/07/08 10:12:49;;;;;;;4.28;3.00;;;;;;;33.40;32.88;100274.87;1696230;84;21198;-45
2021/07/08 10:15:18;;;;;;;5.00;2.80;;;;;;;33.39;33.14;100269.88;1696253;84;20936;-44
2021/07/08 10:17:46;;;;;;;5.73;3.10;;;;;;;33.48;33.70;100272.53;1731693;82;20967;-44
2021/07/08 10:20:15;;;;;;;7.55;3.12;;;;;;;33.62;33.82;100270.87;1703727;83;21032;-44
2021/07/08 10:22:42;;;;;;;5.23;3.07;;;;;;;33.80;33.24;100270.57;1696692;83;21021;-45
2021/07/08 10:25:11;;;;;;;3.02;2.70;;;;;;;33.92;34.00;100266.59;1705713;83;21965;-45
2021/07/08 10:27:40;;;;;;;3.98;2.62;;;;;;;34.07;32.79;100265.69;1696251;83;20953;-45
2021/07/08 10:30:09;;;;;;;3.70;2.80;;;;;;;34.23;33.29;100260.87;1714661;83;21011;-44
2021/07/08 10:32:35;;;;;;;4.35;2.70;;;;;;;34.39;32.48;100268.00;1732959;82;21463;-45
2021/07/08 10:35:03;;;;;;;7.55;3.17;;;;;;;34.52;32.85;100268.23;1701399;83;21111;-45
2021/07/08 10:37:40;;;;;;;7.47;3.20;;;;;;;34.61;32.79;100264.57;1696210;84;21807;-45
2021/07/08 10:40:07;;;;;;;6.30;3.02;;;;;;;34.71;31.37;100260.28;1695637;83;21532;-44
2021/07/08 10:42:53;;;;;;;3.08;2.80;;;;;;;34.76;31.12;100260.95;1696605;83;20932;-45
2021/07/08 10:45:28;;;;;;;4.87;3.00;;;;;;;34.86;32.35;100259.45;1703406;84;21020;-44
2021/07/08 10:48:15;;;;;;;5.03;2.98;;;;;;;35.12;31.49;100255.72;1723417;83;21525;-44
2021/07/08 10:50:50;;;;;;;6.50;3.17;;;;;;;35.36;30.71;100261.72;1696909;83;21933;-45
2021/07/08 10:53:41;;;;;;;6.00;3.08;;;;;;;35.62;30.04;100255.25;1717893;82;21049;-45
2021/07/08 10:56:12;;;;;;;4.87;3.02;;;;;;;35.87;29.90;100247.09;1703593;83;21098;-45
2021/07/08 10:58:51;;;;;;;4.65;3.33;;;;;;;36.16;29.52;100253.66;1794459;80;21027;-44
2021/07/08 11:01:27;;;;;;;5.33;2.95;;;;;;;36.43;29.25;100250.64;1794681;80;21023;-45
2021/07/08 11:04:00;;;;;;;5.78;3.70;;;;;;;36.68;29.68;100249.59;1763908;80;21131;-45
2021/07/08 11:06:30;;;;;;;7.70;3.15;;;;;;;36.93;29.40;100244.88;1769406;80;21048;-45
2021/07/08 11:09:18;;;;;;;5.50;3.33;;;;;;;37.13;29.00;100240.31;1763196;81;21494;-45
2021/07/08 11:11:52;;;;;;;7.95;3.50;;;;;;;37.20;27.79;100243.22;1760264;81;21087;-45
2021/07/08 11:14:26;;;;;;;66.20;7.03;;;;;;;37.16;28.68;100243.50;1697684;84;21095;-45
2021/07/08 11:17:12;;;;;;;8.58;3.95;;;;;;;37.33;28.39;100241.33;1726777;83;21020;-44
2021/07/08 11:19:44;;;;;;;7.60;3.37;;;;;;;37.56;27.78;100232.09;1774853;80;21022;-45
2021/07/08 11:22:17;;;;;;;3.30;2.95;;;;;;;37.82;27.43;100238.70;1791233;80;21592;-45
2021/07/08 11:24:51;;;;;;;3.65;2.83;;;;;;;38.10;26.70;100232.17;1790527;80;21034;-45
2021/07/08 11:27:35;;;;;;;5.78;3.17;;;;;;;38.38;27.00;100236.16;1790485;80;21103;-45
2021/07/08 11:30:16;;;;;;;8.50;3.20;;;;;;;38.50;25.82;100224.84;1767149;80;21147;-45
2021/07/08 11:33:31;;;;;;;3.45;3.12;;;;;;;38.76;25.76;100224.28;1782971;79;22698;-45
2021/07/08 11:36:00;;;;;;;6.47;3.22;;;;;;;38.90;24.62;100231.61;1753689;81;20906;-45
2021/07/08 11:38:30;;;;;;;4.33;2.98;;;;;;;38.95;24.58;100222.26;1755242;81;21950;-45